sensor_id;sensor_type;location;lat;lon;timestamp;temperature;humidity
23609;DHT22;11982;50.810;4.442;2023-08-20T00:01:05;19.90;99.90
23609;DHT22;11982;50.810;4.442;2023-08-20T00:03:33;19.80;99.90
23609;DHT22;11982;50.810;4.442;2023-08-20T00:09:21;19.60;99.90
23609;DHT22;11982;50.810;4.442;2023-08-20T00:11:46;19.60;99.90
23609;DHT22;11982;50.810;4.442;2023-08-20T00:14:15;19.50;99.90
23609;DHT22;11982;50.810;4.442;2023-08-20T00:16:41;19.40;99.90
23609;DHT22;11982;50.810;4.442;2023-08-20T00:19:08;19.20;99.90
23609;DHT22;11982;50.810;4.442;2023-08-20T00:21:34;19.10;99.90
23609;DHT22;11982;50.810;4.442;2023-08-20T00:24:00;19.20;99.90
23609;DHT22;11982;50.810;4.442;2023-08-20T00:26:26;19.20;99.90
23609;DHT22;11982;50.810;4.442;2023-08-20T00:28:52;19.10;99.90
23609;DHT22;11982;50.810;4.442;2023-08-20T00:31:17;19.10;99.90
23609;DHT22;11982;50.810;4.442;2023-08-20T00:33:43;19.10;99.90
23609;DHT22;11982;50.810;4.442;2023-08-20T00:39:30;19.10;99.90
23609;DHT22;11982;50.810;4.442;2023-08-20T00:41:56;18.80;99.90
23609;DHT22;11982;50.810;4.442;2023-08-20T00:44:21;18.70;99.90
23609;DHT22;11982;50.810;4.442;2023-08-20T00:46:47;18.70;99.90
23609;DHT22;11982;50.810;4.442;2023-08-20T00:49:13;18.70;99.90
23609;DHT22;11982;50.810;4.442;2023-08-20T00:51:39;18.70;99.90
23609;DHT22;11982;50.810;4.442;2023-08-20T00:54:05;18.60;99.90
23609;DHT22;11982;50.810;4.442;2023-08-20T00:56:31;18.70;99.90
23609;DHT22;11982;50.810;4.442;2023-08-20T00:58:57;18.70;99.90
23609;DHT22;11982;50.810;4.442;2023-08-20T01:01:23;18.80;99.90
23609;DHT22;11982;50.810;4.442;2023-08-20T01:03:49;18.90;99.90
23609;DHT22;11982;50.810;4.442;2023-08-20T01:10:04;18.90;99.90
23609;DHT22;11982;50.810;4.442;2023-08-20T01:12:34;18.80;99.90
23609;DHT22;11982;50.810;4.442;2023-08-20T01:14:59;18.90;99.90
23609;DHT22;11982;50.810;4.442;2023-08-20T01:17:25;18.80;99.90
23609;DHT22;11982;50.810;4.442;2023-08-20T01:19:51;18.70;99.90
23609;DHT22;11982;50.810;4.442;2023-08-20T01:22:52;18.70;99.90
23609;DHT22;11982;50.810;4.442;2023-08-20T01:28:28;18.70;99.90
23609;DHT22;11982;50.810;4.442;2023-08-20T01:30:57;18.90;99.90
23609;DHT22;11982;50.810;4.442;2023-08-20T01:33:24;19.00;99.90
23609;DHT22;11982;50.810;4.442;2023-08-20T01:35:53;19.10;99.90
23609;DHT22;11982;50.810;4.442;2023-08-20T01:38:19;19.10;99.90
23609;DHT22;11982;50.810;4.442;2023-08-20T01:40:45;19.10;99.90
23609;DHT22;11982;50.810;4.442;2023-08-20T01:43:11;19.10;99.90
23609;DHT22;11982;50.810;4.442;2023-08-20T01:45:37;19.20;99.90
23609;DHT22;11982;50.810;4.442;2023-08-20T01:48:03;19.20;99.90
23609;DHT22;11982;50.810;4.442;2023-08-20T01:50:29;19.30;99.90
23609;DHT22;11982;50.810;4.442;2023-08-20T01:52:55;19.50;99.90
23609;DHT22;11982;50.810;4.442;2023-08-20T01:55:21;19.50;99.90
23609;DHT22;11982;50.810;4.442;2023-08-20T01:57:47;19.50;99.90
23609;DHT22;11982;50.810;4.442;2023-08-20T02:00:13;19.50;99.90
23609;DHT22;11982;50.810;4.442;2023-08-20T02:02:38;19.50;99.90
23609;DHT22;11982;50.810;4.442;2023-08-20T02:05:04;19.50;99.90
23609;DHT22;11982;50.810;4.442;2023-08-20T02:07:30;19.40;99.90
23609;DHT22;11982;50.810;4.442;2023-08-20T02:09:55;19.60;99.90
23609;DHT22;11982;50.810;4.442;2023-08-20T02:12:21;19.40;99.90
23609;DHT22;11982;50.810;4.442;2023-08-20T02:14:47;19.40;99.90
23609;DHT22;11982;50.810;4.442;2023-08-20T02:17:13;19.30;99.90
23609;DHT22;11982;50.810;4.442;2023-08-20T02:19:39;19.40;99.90
23609;DHT22;11982;50.810;4.442;2023-08-20T02:25:27;19.20;99.90
23609;DHT22;11982;50.810;4.442;2023-08-20T02:27:52;19.00;99.90
23609;DHT22;11982;50.810;4.442;2023-08-20T02:30:18;18.90;99.90
23609;DHT22;11982;50.810;4.442;2023-08-20T02:32:44;18.90;99.90
23609;DHT22;11982;50.810;4.442;2023-08-20T02:35:09;18.80;99.90
23609;DHT22;11982;50.810;4.442;2023-08-20T02:40:57;18.70;99.90
23609;DHT22;11982;50.810;4.442;2023-08-20T02:43:22;18.60;99.90
23609;DHT22;11982;50.810;4.442;2023-08-20T02:45:49;18.50;99.90
23609;DHT22;11982;50.810;4.442;2023-08-20T02:48:14;18.40;99.90
23609;DHT22;11982;50.810;4.442;2023-08-20T02:50:40;18.40;99.90
23609;DHT22;11982;50.810;4.442;2023-08-20T02:53:06;18.20;99.90
23609;DHT22;11982;50.810;4.442;2023-08-20T02:55:33;18.20;99.90
23609;DHT22;11982;50.810;4.442;2023-08-20T02:57:59;18.20;99.90
23609;DHT22;11982;50.810;4.442;2023-08-20T03:00:24;18.20;99.90
23609;DHT22;11982;50.810;4.442;2023-08-20T03:02:50;18.20;99.90
23609;DHT22;11982;50.810;4.442;2023-08-20T03:05:16;18.10;99.90
23609;DHT22;11982;50.810;4.442;2023-08-20T03:11:04;18.00;99.90
23609;DHT22;11982;50.810;4.442;2023-08-20T03:13:29;18.00;99.90
23609;DHT22;11982;50.810;4.442;2023-08-20T03:15:55;18.00;99.90
23609;DHT22;11982;50.810;4.442;2023-08-20T03:18:21;18.00;99.90
23609;DHT22;11982;50.810;4.442;2023-08-20T03:20:47;17.90;99.90
23609;DHT22;11982;50.810;4.442;2023-08-20T03:26:34;17.70;99.90
23609;DHT22;11982;50.810;4.442;2023-08-20T03:29:00;17.60;99.90
23609;DHT22;11982;50.810;4.442;2023-08-20T03:31:26;17.70;99.90
23609;DHT22;11982;50.810;4.442;2023-08-20T03:33:51;17.70;99.90
23609;DHT22;11982;50.810;4.442;2023-08-20T03:36:17;17.70;99.90
23609;DHT22;11982;50.810;4.442;2023-08-20T03:38:43;17.70;99.90
23609;DHT22;11982;50.810;4.442;2023-08-20T03:41:08;17.70;99.90
23609;DHT22;11982;50.810;4.442;2023-08-20T03:43:34;17.60;99.90
23609;DHT22;11982;50.810;4.442;2023-08-20T03:46:01;17.60;99.90
23609;DHT22;11982;50.810;4.442;2023-08-20T03:48:26;17.50;99.90
23609;DHT22;11982;50.810;4.442;2023-08-20T03:50:52;17.50;99.90
23609;DHT22;11982;50.810;4.442;2023-08-20T03:56:53;17.30;99.90
23609;DHT22;11982;50.810;4.442;2023-08-20T03:59:19;17.30;99.90
23609;DHT22;11982;50.810;4.442;2023-08-20T04:01:44;17.20;99.90
23609;DHT22;11982;50.810;4.442;2023-08-20T04:04:10;17.20;99.90
23609;DHT22;11982;50.810;4.442;2023-08-20T04:06:36;17.10;99.90
23609;DHT22;11982;50.810;4.442;2023-08-20T04:09:01;17.00;99.90
23609;DHT22;11982;50.810;4.442;2023-08-20T04:11:27;17.10;99.90
23609;DHT22;11982;50.810;4.442;2023-08-20T04:13:53;17.10;99.90
23609;DHT22;11982;50.810;4.442;2023-08-20T04:16:18;17.00;99.90
23609;DHT22;11982;50.810;4.442;2023-08-20T04:18:44;17.00;99.90
23609;DHT22;11982;50.810;4.442;2023-08-20T04:21:09;17.00;99.90
23609;DHT22;11982;50.810;4.442;2023-08-20T04:26:57;17.00;99.90
23609;DHT22;11982;50.810;4.442;2023-08-20T04:29:23;17.00;99.90
23609;DHT22;11982;50.810;4.442;2023-08-20T04:31:48;17.10;99.90
23609;DHT22;11982;50.810;4.442;2023-08-20T04:34:14;17.10;99.90
23609;DHT22;11982;50.810;4.442;2023-08-20T04:36:40;17.00;99.90
23609;DHT22;11982;50.810;4.442;2023-08-20T04:42:27;17.00;99.90
23609;DHT22;11982;50.810;4.442;2023-08-20T04:44:53;17.10;99.90
23609;DHT22;11982;50.810;4.442;2023-08-20T04:47:18;17.10;99.90
23609;DHT22;11982;50.810;4.442;2023-08-20T04:49:44;17.10;99.90
23609;DHT22;11982;50.810;4.442;2023-08-20T04:52:10;17.20;99.90
23609;DHT22;11982;50.810;4.442;2023-08-20T04:54:35;17.10;99.90
23609;DHT22;11982;50.810;4.442;2023-08-20T04:57:01;17.10;99.90
23609;DHT22;11982;50.810;4.442;2023-08-20T04:59:27;17.10;99.90
23609;DHT22;11982;50.810;4.442;2023-08-20T05:01:53;17.00;99.90
23609;DHT22;11982;50.810;4.442;2023-08-20T05:04:19;17.10;99.90
23609;DHT22;11982;50.810;4.442;2023-08-20T05:06:44;17.00;99.90
23609;DHT22;11982;50.810;4.442;2023-08-20T05:12:32;17.10;99.90
23609;DHT22;11982;50.810;4.442;2023-08-20T05:14:57;17.00;99.90
23609;DHT22;11982;50.810;4.442;2023-08-20T05:17:23;16.90;99.90
23609;DHT22;11982;50.810;4.442;2023-08-20T05:19:49;17.00;99.90
23609;DHT22;11982;50.810;4.442;2023-08-20T05:22:14;17.00;99.90
23609;DHT22;11982;50.810;4.442;2023-08-20T05:24:40;17.20;99.90
23609;DHT22;11982;50.810;4.442;2023-08-20T05:27:16;17.00;99.90
23609;DHT22;11982;50.810;4.442;2023-08-20T05:29:45;17.10;99.90
23609;DHT22;11982;50.810;4.442;2023-08-20T05:32:11;17.40;99.90
23609;DHT22;11982;50.810;4.442;2023-08-20T05:34:37;17.30;99.90
23609;DHT22;11982;50.810;4.442;2023-08-20T05:37:03;17.40;99.90
23609;DHT22;11982;50.810;4.442;2023-08-20T05:42:53;17.70;99.90
23609;DHT22;11982;50.810;4.442;2023-08-20T05:45:19;17.80;99.90
23609;DHT22;11982;50.810;4.442;2023-08-20T05:47:44;17.80;99.90
23609;DHT22;11982;50.810;4.442;2023-08-20T05:50:10;17.80;99.90
23609;DHT22;11982;50.810;4.442;2023-08-20T05:52:36;17.90;99.90
23609;DHT22;11982;50.810;4.442;2023-08-20T05:55:01;17.90;99.90
23609;DHT22;11982;50.810;4.442;2023-08-20T05:57:27;18.00;99.90
23609;DHT22;11982;50.810;4.442;2023-08-20T05:59:53;18.10;99.90
23609;DHT22;11982;50.810;4.442;2023-08-20T06:02:19;18.40;99.90
23609;DHT22;11982;50.810;4.442;2023-08-20T06:04:44;18.50;99.90
23609;DHT22;11982;50.810;4.442;2023-08-20T06:07:10;18.60;99.90
23609;DHT22;11982;50.810;4.442;2023-08-20T06:12:57;18.10;99.90
23609;DHT22;11982;50.810;4.442;2023-08-20T06:15:23;18.10;99.90
23609;DHT22;11982;50.810;4.442;2023-08-20T06:17:49;18.30;99.90
23609;DHT22;11982;50.810;4.442;2023-08-20T06:20:14;18.60;99.90
23609;DHT22;11982;50.810;4.442;2023-08-20T06:22:40;18.70;99.90
23609;DHT22;11982;50.810;4.442;2023-08-20T06:28:27;18.80;99.90
23609;DHT22;11982;50.810;4.442;2023-08-20T06:30:53;18.80;99.90
23609;DHT22;11982;50.810;4.442;2023-08-20T06:33:19;18.90;99.90
23609;DHT22;11982;50.810;4.442;2023-08-20T06:35:44;19.00;99.90
23609;DHT22;11982;50.810;4.442;2023-08-20T06:38:10;19.20;99.90
23609;DHT22;11982;50.810;4.442;2023-08-20T06:40:36;19.30;99.90
23609;DHT22;11982;50.810;4.442;2023-08-20T06:43:01;19.50;99.90
23609;DHT22;11982;50.810;4.442;2023-08-20T06:45:27;19.70;99.90
23609;DHT22;11982;50.810;4.442;2023-08-20T06:47:53;20.00;99.90
23609;DHT22;11982;50.810;4.442;2023-08-20T06:50:18;20.20;99.90
23609;DHT22;11982;50.810;4.442;2023-08-20T06:52:44;20.30;99.90
23609;DHT22;11982;50.810;4.442;2023-08-20T06:58:32;20.40;99.90
23609;DHT22;11982;50.810;4.442;2023-08-20T07:00:57;20.40;99.90
23609;DHT22;11982;50.810;4.442;2023-08-20T07:03:39;20.30;99.90
23609;DHT22;11982;50.810;4.442;2023-08-20T07:06:05;20.30;99.90
23609;DHT22;11982;50.810;4.442;2023-08-20T07:08:31;20.50;99.90
23609;DHT22;11982;50.810;4.442;2023-08-20T07:10:57;20.60;99.90
23609;DHT22;11982;50.810;4.442;2023-08-20T07:13:23;20.80;99.90
23609;DHT22;11982;50.810;4.442;2023-08-20T07:15:49;21.00;99.90
23609;DHT22;11982;50.810;4.442;2023-08-20T07:18:15;21.20;99.90
23609;DHT22;11982;50.810;4.442;2023-08-20T07:20:44;21.30;99.90
23609;DHT22;11982;50.810;4.442;2023-08-20T07:23:10;21.50;99.90
23609;DHT22;11982;50.810;4.442;2023-08-20T07:28:58;21.70;99.90
23609;DHT22;11982;50.810;4.442;2023-08-20T07:31:29;21.90;99.90
23609;DHT22;11982;50.810;4.442;2023-08-20T07:33:56;21.90;99.90
23609;DHT22;11982;50.810;4.442;2023-08-20T07:36:24;21.90;99.90
23609;DHT22;11982;50.810;4.442;2023-08-20T07:38:51;22.10;99.90
23609;DHT22;11982;50.810;4.442;2023-08-20T07:41:17;22.30;99.90
23609;DHT22;11982;50.810;4.442;2023-08-20T07:43:43;22.60;99.90
23609;DHT22;11982;50.810;4.442;2023-08-20T07:46:09;22.30;99.90
23609;DHT22;11982;50.810;4.442;2023-08-20T07:48:35;22.30;99.90
23609;DHT22;11982;50.810;4.442;2023-08-20T07:51:02;22.40;99.90
23609;DHT22;11982;50.810;4.442;2023-08-20T07:53:29;22.50;99.90
23609;DHT22;11982;50.810;4.442;2023-08-20T07:59:16;22.60;99.90
23609;DHT22;11982;50.810;4.442;2023-08-20T08:01:42;22.50;99.90
23609;DHT22;11982;50.810;4.442;2023-08-20T08:04:07;22.60;99.90
23609;DHT22;11982;50.810;4.442;2023-08-20T08:06:33;22.60;99.90
23609;DHT22;11982;50.810;4.442;2023-08-20T08:15:42;22.80;99.90
23609;DHT22;11982;50.810;4.442;2023-08-20T08:18:08;22.90;99.90
23609;DHT22;11982;50.810;4.442;2023-08-20T08:20:34;23.00;99.90
23609;DHT22;11982;50.810;4.442;2023-08-20T08:23:00;23.00;99.90
23609;DHT22;11982;50.810;4.442;2023-08-20T08:25:27;22.90;99.90
23609;DHT22;11982;50.810;4.442;2023-08-20T08:27:52;23.10;99.90
23609;DHT22;11982;50.810;4.442;2023-08-20T08:30:18;23.20;99.90
23609;DHT22;11982;50.810;4.442;2023-08-20T08:32:44;23.40;99.90
23609;DHT22;11982;50.810;4.442;2023-08-20T08:35:09;23.40;99.90
23609;DHT22;11982;50.810;4.442;2023-08-20T08:37:35;23.50;99.90
23609;DHT22;11982;50.810;4.442;2023-08-20T08:40:02;23.90;99.90
23609;DHT22;11982;50.810;4.442;2023-08-20T08:42:32;23.90;99.90
23609;DHT22;11982;50.810;4.442;2023-08-20T08:44:59;24.00;99.90
23609;DHT22;11982;50.810;4.442;2023-08-20T08:47:25;24.10;99.90
23609;DHT22;11982;50.810;4.442;2023-08-20T08:49:52;24.10;99.90
23609;DHT22;11982;50.810;4.442;2023-08-20T08:52:22;24.20;99.90
23609;DHT22;11982;50.810;4.442;2023-08-20T08:54:48;24.20;99.90
23609;DHT22;11982;50.810;4.442;2023-08-20T08:57:15;23.90;99.90
23609;DHT22;11982;50.810;4.442;2023-08-20T08:59:41;23.60;99.90
23609;DHT22;11982;50.810;4.442;2023-08-20T09:02:09;23.70;99.90
23609;DHT22;11982;50.810;4.442;2023-08-20T09:04:39;24.00;99.90
23609;DHT22;11982;50.810;4.442;2023-08-20T09:07:05;24.10;99.90
23609;DHT22;11982;50.810;4.442;2023-08-20T09:09:36;24.20;99.90
23609;DHT22;11982;50.810;4.442;2023-08-20T09:15:34;24.50;99.90
23609;DHT22;11982;50.810;4.442;2023-08-20T09:18:02;24.30;99.90
23609;DHT22;11982;50.810;4.442;2023-08-20T09:20:38;24.50;99.90
23609;DHT22;11982;50.810;4.442;2023-08-20T09:23:10;24.60;99.90
23609;DHT22;11982;50.810;4.442;2023-08-20T09:25:36;24.50;99.90
23609;DHT22;11982;50.810;4.442;2023-08-20T09:28:05;24.20;99.90
23609;DHT22;11982;50.810;4.442;2023-08-20T09:30:31;24.00;99.90
23609;DHT22;11982;50.810;4.442;2023-08-20T09:33:09;24.00;99.90
23609;DHT22;11982;50.810;4.442;2023-08-20T09:35:35;24.30;99.90
23609;DHT22;11982;50.810;4.442;2023-08-20T09:38:04;24.50;99.90
23609;DHT22;11982;50.810;4.442;2023-08-20T09:40:30;24.80;99.90
23609;DHT22;11982;50.810;4.442;2023-08-20T09:42:57;24.90;99.90
23609;DHT22;11982;50.810;4.442;2023-08-20T09:45:28;24.90;99.90
23609;DHT22;11982;50.810;4.442;2023-08-20T09:47:58;25.10;99.90
23609;DHT22;11982;50.810;4.442;2023-08-20T09:50:26;25.00;99.90
23609;DHT22;11982;50.810;4.442;2023-08-20T09:52:58;25.10;99.90
23609;DHT22;11982;50.810;4.442;2023-08-20T09:55:33;25.20;99.90
23609;DHT22;11982;50.810;4.442;2023-08-20T09:58:01;25.20;99.90
23609;DHT22;11982;50.810;4.442;2023-08-20T10:00:28;25.30;99.90
23609;DHT22;11982;50.810;4.442;2023-08-20T10:02:56;25.20;99.90
23609;DHT22;11982;50.810;4.442;2023-08-20T10:05:23;25.30;99.90
23609;DHT22;11982;50.810;4.442;2023-08-20T10:07:49;25.30;99.90
23609;DHT22;11982;50.810;4.442;2023-08-20T10:10:16;25.30;99.90
23609;DHT22;11982;50.810;4.442;2023-08-20T10:16:04;25.40;99.90
23609;DHT22;11982;50.810;4.442;2023-08-20T10:18:30;25.40;99.90
23609;DHT22;11982;50.810;4.442;2023-08-20T10:21:02;25.50;99.90
23609;DHT22;11982;50.810;4.442;2023-08-20T10:23:28;25.80;99.90
23609;DHT22;11982;50.810;4.442;2023-08-20T10:25:54;25.90;99.90
23609;DHT22;11982;50.810;4.442;2023-08-20T10:28:27;26.10;99.90
23609;DHT22;11982;50.810;4.442;2023-08-20T10:31:10;26.30;99.90
23609;DHT22;11982;50.810;4.442;2023-08-20T10:33:47;26.40;99.90
23609;DHT22;11982;50.810;4.442;2023-08-20T10:36:18;26.10;99.90
23609;DHT22;11982;50.810;4.442;2023-08-20T10:38:48;26.40;99.90
23609;DHT22;11982;50.810;4.442;2023-08-20T10:41:16;26.30;99.90
23609;DHT22;11982;50.810;4.442;2023-08-20T10:43:50;26.20;99.90
23609;DHT22;11982;50.810;4.442;2023-08-20T10:46:18;26.40;99.90
23609;DHT22;11982;50.810;4.442;2023-08-20T10:48:55;26.40;99.90
23609;DHT22;11982;50.810;4.442;2023-08-20T10:51:37;26.50;99.90
23609;DHT22;11982;50.810;4.442;2023-08-20T10:54:07;26.50;99.90
23609;DHT22;11982;50.810;4.442;2023-08-20T10:56:54;26.60;99.90
23609;DHT22;11982;50.810;4.442;2023-08-20T11:01:48;26.60;99.90
23609;DHT22;11982;50.810;4.442;2023-08-20T11:04:22;26.60;99.90
23609;DHT22;11982;50.810;4.442;2023-08-20T11:06:53;26.60;99.90
23609;DHT22;11982;50.810;4.442;2023-08-20T11:09:31;26.60;99.90
23609;DHT22;11982;50.810;4.442;2023-08-20T11:11:57;26.60;99.90
23609;DHT22;11982;50.810;4.442;2023-08-20T11:14:24;26.50;99.90
23609;DHT22;11982;50.810;4.442;2023-08-20T11:16:50;26.70;99.90
23609;DHT22;11982;50.810;4.442;2023-08-20T11:19:23;26.90;99.90
23609;DHT22;11982;50.810;4.442;2023-08-20T11:21:50;27.00;99.90
23609;DHT22;11982;50.810;4.442;2023-08-20T11:24:16;27.10;99.90
23609;DHT22;11982;50.810;4.442;2023-08-20T11:26:43;27.40;99.90
23609;DHT22;11982;50.810;4.442;2023-08-20T11:29:11;26.90;99.90
23609;DHT22;11982;50.810;4.442;2023-08-20T11:31:42;26.60;99.90
23609;DHT22;11982;50.810;4.442;2023-08-20T11:34:08;26.50;99.90
23609;DHT22;11982;50.810;4.442;2023-08-20T11:36:35;26.60;99.90
23609;DHT22;11982;50.810;4.442;2023-08-20T11:39:01;26.60;99.90
23609;DHT22;11982;50.810;4.442;2023-08-20T11:41:26;26.90;99.90
23609;DHT22;11982;50.810;4.442;2023-08-20T11:47:18;27.00;99.90
23609;DHT22;11982;50.810;4.442;2023-08-20T11:49:44;26.90;99.90
23609;DHT22;11982;50.810;4.442;2023-08-20T11:52:11;27.10;99.90
23609;DHT22;11982;50.810;4.442;2023-08-20T11:54:38;27.00;99.90
23609;DHT22;11982;50.810;4.442;2023-08-20T11:57:05;27.00;99.90
23609;DHT22;11982;50.810;4.442;2023-08-20T12:03:33;27.00;99.90
23609;DHT22;11982;50.810;4.442;2023-08-20T12:05:58;27.10;99.90
23609;DHT22;11982;50.810;4.442;2023-08-20T12:08:24;27.30;99.90
23609;DHT22;11982;50.810;4.442;2023-08-20T12:10:50;27.30;99.90
23609;DHT22;11982;50.810;4.442;2023-08-20T12:13:15;27.40;99.90
23609;DHT22;11982;50.810;4.442;2023-08-20T12:15:41;27.60;99.90
23609;DHT22;11982;50.810;4.442;2023-08-20T12:18:07;27.90;99.90
23609;DHT22;11982;50.810;4.442;2023-08-20T12:20:35;28.10;99.90
23609;DHT22;11982;50.810;4.442;2023-08-20T12:23:05;27.70;99.90
23609;DHT22;11982;50.810;4.442;2023-08-20T12:25:33;27.90;99.90
23609;DHT22;11982;50.810;4.442;2023-08-20T12:28:00;28.10;99.90
23609;DHT22;11982;50.810;4.442;2023-08-20T12:30:27;28.40;99.90
23609;DHT22;11982;50.810;4.442;2023-08-20T12:32:52;28.50;99.90
23609;DHT22;11982;50.810;4.442;2023-08-20T12:35:18;28.50;99.90
23609;DHT22;11982;50.810;4.442;2023-08-20T12:37:43;28.90;99.90
23609;DHT22;11982;50.810;4.442;2023-08-20T12:40:10;29.20;99.90
23609;DHT22;11982;50.810;4.442;2023-08-20T12:42:38;29.40;99.90
23609;DHT22;11982;50.810;4.442;2023-08-20T12:48:26;29.10;99.90
23609;DHT22;11982;50.810;4.442;2023-08-20T12:50:52;29.80;99.90
23609;DHT22;11982;50.810;4.442;2023-08-20T12:53:18;29.90;99.90
23609;DHT22;11982;50.810;4.442;2023-08-20T12:55:44;29.70;99.90
23609;DHT22;11982;50.810;4.442;2023-08-20T12:58:10;29.90;99.90
23609;DHT22;11982;50.810;4.442;2023-08-20T13:00:35;29.90;99.90
23609;DHT22;11982;50.810;4.442;2023-08-20T13:03:01;29.80;99.90
23609;DHT22;11982;50.810;4.442;2023-08-20T13:05:27;30.30;99.90
23609;DHT22;11982;50.810;4.442;2023-08-20T13:07:53;30.80;99.90
23609;DHT22;11982;50.810;4.442;2023-08-20T13:10:20;30.80;99.90
23609;DHT22;11982;50.810;4.442;2023-08-20T13:12:49;30.80;99.90
23609;DHT22;11982;50.810;4.442;2023-08-20T13:18:37;31.20;99.90
23609;DHT22;11982;50.810;4.442;2023-08-20T13:21:03;31.90;99.90
23609;DHT22;11982;50.810;4.442;2023-08-20T13:23:29;31.90;99.90
23609;DHT22;11982;50.810;4.442;2023-08-20T13:25:55;31.40;99.90
23609;DHT22;11982;50.810;4.442;2023-08-20T13:28:21;30.80;99.90
23609;DHT22;11982;50.810;4.442;2023-08-20T13:30:46;30.90;99.90
23609;DHT22;11982;50.810;4.442;2023-08-20T13:33:15;30.80;99.90
23609;DHT22;11982;50.810;4.442;2023-08-20T13:35:41;31.00;99.90
23609;DHT22;11982;50.810;4.442;2023-08-20T13:38:07;30.80;99.90
23609;DHT22;11982;50.810;4.442;2023-08-20T13:40:33;31.00;99.90
23609;DHT22;11982;50.810;4.442;2023-08-20T13:42:59;30.70;99.90
23609;DHT22;11982;50.810;4.442;2023-08-20T13:48:46;30.40;99.90
23609;DHT22;11982;50.810;4.442;2023-08-20T13:51:12;31.10;99.90
23609;DHT22;11982;50.810;4.442;2023-08-20T13:53:37;31.50;99.90
23609;DHT22;11982;50.810;4.442;2023-08-20T13:56:03;31.60;99.90
23609;DHT22;11982;50.810;4.442;2023-08-20T13:58:29;31.70;99.90
23609;DHT22;11982;50.810;4.442;2023-08-20T14:04:16;32.10;99.90
23609;DHT22;11982;50.810;4.442;2023-08-20T14:06:42;31.10;99.90
23609;DHT22;11982;50.810;4.442;2023-08-20T14:09:08;30.80;99.90
23609;DHT22;11982;50.810;4.442;2023-08-20T14:11:33;30.30;99.90
23609;DHT22;11982;50.810;4.442;2023-08-20T14:13:59;30.40;99.90
23609;DHT22;11982;50.810;4.442;2023-08-20T14:16:25;30.30;99.90
23609;DHT22;11982;50.810;4.442;2023-08-20T14:18:50;30.00;99.90
23609;DHT22;11982;50.810;4.442;2023-08-20T14:21:16;29.40;99.90
23609;DHT22;11982;50.810;4.442;2023-08-20T14:23:42;29.50;99.90
23609;DHT22;11982;50.810;4.442;2023-08-20T14:26:08;29.20;99.90
23609;DHT22;11982;50.810;4.442;2023-08-20T14:28:34;29.20;99.90
23609;DHT22;11982;50.810;4.442;2023-08-20T14:34:21;29.60;99.90
23609;DHT22;11982;50.810;4.442;2023-08-20T14:36:46;30.10;99.90
23609;DHT22;11982;50.810;4.442;2023-08-20T14:39:12;29.90;99.90
23609;DHT22;11982;50.810;4.442;2023-08-20T14:41:38;30.00;99.90
23609;DHT22;11982;50.810;4.442;2023-08-20T14:44:04;30.40;99.90
23609;DHT22;11982;50.810;4.442;2023-08-20T14:49:52;30.60;99.90
23609;DHT22;11982;50.810;4.442;2023-08-20T14:52:18;30.40;99.90
23609;DHT22;11982;50.810;4.442;2023-08-20T14:54:43;30.60;99.90
23609;DHT22;11982;50.810;4.442;2023-08-20T14:57:09;31.10;99.90
23609;DHT22;11982;50.810;4.442;2023-08-20T14:59:35;31.20;99.90
23609;DHT22;11982;50.810;4.442;2023-08-20T15:02:00;31.30;99.90
23609;DHT22;11982;50.810;4.442;2023-08-20T15:04:26;30.90;99.90
23609;DHT22;11982;50.810;4.442;2023-08-20T15:06:52;31.10;99.90
23609;DHT22;11982;50.810;4.442;2023-08-20T15:09:17;31.40;99.90
23609;DHT22;11982;50.810;4.442;2023-08-20T15:11:43;31.30;99.90
23609;DHT22;11982;50.810;4.442;2023-08-20T15:14:09;30.70;99.90
23609;DHT22;11982;50.810;4.442;2023-08-20T15:19:58;30.20;99.90
23609;DHT22;11982;50.810;4.442;2023-08-20T15:22:23;29.60;99.90
23609;DHT22;11982;50.810;4.442;2023-08-20T15:24:49;29.50;99.90
23609;DHT22;11982;50.810;4.442;2023-08-20T15:27:17;29.60;99.90
23609;DHT22;11982;50.810;4.442;2023-08-20T15:29:43;29.60;99.90
23609;DHT22;11982;50.810;4.442;2023-08-20T15:35:30;28.80;99.90
23609;DHT22;11982;50.810;4.442;2023-08-20T15:37:56;28.60;99.90
23609;DHT22;11982;50.810;4.442;2023-08-20T15:40:22;28.60;99.90
23609;DHT22;11982;50.810;4.442;2023-08-20T15:42:47;28.50;99.90
23609;DHT22;11982;50.810;4.442;2023-08-20T15:45:13;28.70;99.90
23609;DHT22;11982;50.810;4.442;2023-08-20T15:47:39;28.90;99.90
23609;DHT22;11982;50.810;4.442;2023-08-20T15:50:05;29.10;99.90
23609;DHT22;11982;50.810;4.442;2023-08-20T15:52:31;29.20;99.90
23609;DHT22;11982;50.810;4.442;2023-08-20T15:54:57;29.20;99.90
23609;DHT22;11982;50.810;4.442;2023-08-20T15:57:23;29.10;99.90
23609;DHT22;11982;50.810;4.442;2023-08-20T15:59:49;29.10;99.90
23609;DHT22;11982;50.810;4.442;2023-08-20T16:05:37;29.00;99.90
23609;DHT22;11982;50.810;4.442;2023-08-20T16:08:03;28.70;99.90
23609;DHT22;11982;50.810;4.442;2023-08-20T16:10:28;28.60;99.90
23609;DHT22;11982;50.810;4.442;2023-08-20T16:12:54;28.50;99.90
23609;DHT22;11982;50.810;4.442;2023-08-20T16:15:20;28.40;99.90
23609;DHT22;11982;50.810;4.442;2023-08-20T16:17:46;28.30;99.90
23609;DHT22;11982;50.810;4.442;2023-08-20T16:20:11;28.30;99.90
23609;DHT22;11982;50.810;4.442;2023-08-20T16:22:37;27.70;99.90
23609;DHT22;11982;50.810;4.442;2023-08-20T16:25:03;27.70;99.90
23609;DHT22;11982;50.810;4.442;2023-08-20T16:27:30;27.70;99.90
23609;DHT22;11982;50.810;4.442;2023-08-20T16:29:56;27.60;99.90
23609;DHT22;11982;50.810;4.442;2023-08-20T16:35:47;27.50;99.90
23609;DHT22;11982;50.810;4.442;2023-08-20T16:38:12;27.50;99.90
23609;DHT22;11982;50.810;4.442;2023-08-20T16:40:38;27.60;99.90
23609;DHT22;11982;50.810;4.442;2023-08-20T16:43:04;27.60;99.90
23609;DHT22;11982;50.810;4.442;2023-08-20T16:45:30;27.60;99.90
23609;DHT22;11982;50.810;4.442;2023-08-20T16:51:18;27.70;99.90
23609;DHT22;11982;50.810;4.442;2023-08-20T16:53:43;27.90;99.90
23609;DHT22;11982;50.810;4.442;2023-08-20T16:56:09;28.00;99.90
23609;DHT22;11982;50.810;4.442;2023-08-20T16:58:35;27.90;99.90
23609;DHT22;11982;50.810;4.442;2023-08-20T17:01:00;27.70;99.90
23609;DHT22;11982;50.810;4.442;2023-08-20T17:03:29;27.80;99.90
23609;DHT22;11982;50.810;4.442;2023-08-20T17:06:01;27.80;99.90
23609;DHT22;11982;50.810;4.442;2023-08-20T17:08:28;27.30;99.90
23609;DHT22;11982;50.810;4.442;2023-08-20T17:10:53;27.20;99.90
23609;DHT22;11982;50.810;4.442;2023-08-20T17:13:19;27.40;99.90
23609;DHT22;11982;50.810;4.442;2023-08-20T17:15:45;27.30;99.90
23609;DHT22;11982;50.810;4.442;2023-08-20T17:21:32;27.00;99.90
23609;DHT22;11982;50.810;4.442;2023-08-20T17:23:58;26.80;99.90
23609;DHT22;11982;50.810;4.442;2023-08-20T17:26:23;26.60;99.90
23609;DHT22;11982;50.810;4.442;2023-08-20T17:28:49;26.50;99.90
23609;DHT22;11982;50.810;4.442;2023-08-20T17:31:15;26.30;99.90